createdAt,value
2017-09-22T00:00:39.899Z,99.99
2017-09-22T00:01:40.180Z,99.99
2017-09-22T00:02:40.200Z,99.99
2017-09-22T00:03:40.223Z,99.99
2017-09-22T00:04:54.866Z,99.99
2017-09-22T00:05:39.956Z,99.99
2017-09-22T00:06:40.296Z,99.99
2017-09-22T00:07:40.310Z,99.99
2017-09-22T00:08:40.339Z,99.99
2017-09-22T00:09:40.350Z,99.99
2017-09-22T00:10:40.377Z,99.99
2017-09-22T00:11:40.398Z,99.99
2017-09-22T00:12:40.417Z,99.99
2017-09-22T00:13:40.443Z,99.99
2017-09-22T00:14:40.153Z,99.99
2017-09-22T00:15:40.175Z,99.99
2017-09-22T00:16:40.504Z,99.99
2017-09-22T00:17:40.526Z,99.99
2017-09-22T00:18:40.549Z,99.99
2017-09-22T00:19:40.569Z,99.99
2017-09-22T00:20:55.213Z,99.99
2017-09-22T00:21:40.616Z,99.99
2017-09-22T00:22:40.634Z,99.99
2017-09-22T00:24:40.681Z,99.99
2017-09-22T00:25:40.706Z,99.99
2017-09-22T00:27:40.792Z,99.99
2017-09-22T00:28:40.816Z,99.99
2017-09-22T00:29:40.835Z,99.99
2017-09-22T00:30:40.857Z,99.99
2017-09-22T00:31:40.879Z,99.99
2017-09-22T00:32:40.899Z,99.99
2017-09-22T00:33:40.924Z,99.99
2017-09-22T00:34:40.944Z,99.99
2017-09-22T00:35:55.557Z,99.99
2017-09-22T00:36:40.671Z,99.99
2017-09-22T00:37:41.006Z,99.99
2017-09-22T00:38:40.711Z,99.99
2017-09-22T00:39:41.049Z,99.99
2017-09-22T00:41:41.098Z,99.99
2017-09-22T00:42:41.121Z,99.99
2017-09-22T00:43:40.823Z,99.99
2017-09-22T00:44:41.158Z,99.99
2017-09-22T00:45:41.179Z,99.99
2017-09-22T00:46:41.201Z,99.99
2017-09-22T00:47:41.222Z,99.99
2017-09-22T00:48:40.926Z,99.99
2017-09-22T00:49:40.948Z,99.99
2017-09-22T00:50:41.291Z,99.99
2017-09-22T00:51:41.042Z,99.99
2017-09-22T00:52:41.331Z,99.99
2017-09-22T00:53:41.351Z,99.99
2017-09-22T00:55:41.393Z,99.99
2017-09-22T00:57:41.438Z,99.99
2017-09-22T00:58:41.465Z,99.99
2017-09-22T00:59:41.479Z,99.99
2017-09-22T01:00:41.503Z,99.99
2017-09-22T01:01:41.562Z,99.99
2017-09-22T01:02:41.550Z,99.99
2017-09-22T01:03:41.568Z,99.99
2017-09-22T01:05:41.613Z,99.99
2017-09-22T01:06:41.635Z,99.99
2017-09-22T01:07:56.240Z,99.99
2017-09-22T01:08:41.671Z,99.99
2017-09-22T01:09:41.694Z,99.99
2017-09-22T01:10:41.710Z,99.99
2017-09-22T01:12:41.760Z,99.99
2017-09-22T01:13:41.779Z,99.99
2017-09-22T01:14:41.803Z,99.99
2017-09-22T01:15:41.819Z,99.99
2017-09-22T01:16:41.841Z,99.99
2017-09-22T01:17:41.862Z,99.99
2017-09-22T01:18:41.884Z,99.99
2017-09-22T01:19:41.905Z,99.99
2017-09-22T01:20:41.926Z,99.99
2017-09-22T01:21:41.944Z,99.99
2017-09-22T01:22:41.970Z,99.99
2017-09-22T01:23:56.581Z,99.99
2017-09-22T01:24:42.017Z,99.99
2017-09-22T01:25:42.038Z,99.99
2017-09-22T01:26:42.060Z,99.99
2017-09-22T01:27:42.081Z,99.99
2017-09-22T01:28:42.104Z,99.99
2017-09-22T01:29:42.123Z,99.99
2017-09-22T01:30:42.145Z,99.99
2017-09-22T01:31:42.167Z,99.99
2017-09-22T01:32:42.186Z,99.99
2017-09-22T01:33:41.886Z,99.99
2017-09-22T01:34:42.227Z,99.99
2017-09-22T01:35:41.930Z,99.99
2017-09-22T01:36:42.271Z,99.99
2017-09-22T01:37:41.972Z,99.99
2017-09-22T01:38:41.993Z,99.99
2017-09-22T01:39:56.923Z,99.99
2017-09-22T01:41:42.377Z,99.99
2017-09-22T01:42:42.079Z,99.99
2017-09-22T01:43:42.097Z,99.99
2017-09-22T01:44:42.121Z,99.99
2017-09-22T01:45:42.145Z,99.99
2017-09-22T01:46:42.160Z,99.99
2017-09-22T01:47:42.497Z,99.99
2017-09-22T01:48:42.200Z,99.99
2017-09-22T01:49:42.222Z,99.99
2017-09-22T01:50:42.244Z,99.99
2017-09-22T01:51:42.582Z,99.99
2017-09-22T01:52:42.605Z,99.99
2017-09-22T01:53:42.306Z,99.99
2017-09-22T01:54:42.327Z,99.99
2017-09-22T01:55:57.261Z,99.99
2017-09-22T01:56:42.370Z,99.99
2017-09-22T01:58:42.732Z,99.99
2017-09-22T01:59:42.433Z,99.99
2017-09-22T02:00:42.784Z,99.99
2017-09-22T02:01:42.794Z,99.99
2017-09-22T02:02:42.815Z,99.99
2017-09-22T02:03:42.838Z,99.99
2017-09-22T02:04:42.859Z,99.99
2017-09-22T02:05:42.880Z,99.99
2017-09-22T02:06:42.581Z,99.99
2017-09-22T02:07:42.928Z,99.99
2017-09-22T02:08:42.945Z,99.99
2017-09-22T02:09:42.961Z,99.99
2017-09-22T02:10:57.578Z,99.99
2017-09-22T02:11:43.010Z,99.99
2017-09-22T02:12:43.030Z,99.99
2017-09-22T02:13:42.731Z,99.99
2017-09-22T02:14:43.072Z,99.99
2017-09-22T02:15:42.778Z,99.99
2017-09-22T02:16:43.112Z,99.99
2017-09-22T02:17:43.135Z,99.99
2017-09-22T02:18:43.154Z,99.99
2017-09-22T02:19:43.177Z,99.99
2017-09-22T02:20:43.201Z,99.99
2017-09-22T02:21:43.222Z,99.99
2017-09-22T02:22:43.244Z,99.99
2017-09-22T02:23:43.263Z,99.99
2017-09-22T02:24:43.286Z,99.99
2017-09-22T02:25:43.355Z,99.99
2017-09-22T02:26:43.328Z,99.99
2017-09-22T02:27:43.346Z,99.99
2017-09-22T02:28:43.375Z,99.99
2017-09-22T02:29:43.392Z,99.99
2017-09-22T02:30:43.420Z,99.99
2017-09-22T02:31:43.117Z,99.99
2017-09-22T02:32:43.457Z,99.99
2017-09-22T02:33:43.477Z,99.99
2017-09-22T02:34:43.500Z,99.99
2017-09-22T02:35:43.520Z,99.99
2017-09-22T02:36:43.540Z,99.99
2017-09-22T02:37:43.563Z,99.99
2017-09-22T02:38:43.585Z,99.99
2017-09-22T02:39:43.606Z,99.99
2017-09-22T02:40:43.624Z,99.99
2017-09-22T02:41:43.647Z,99.99
2017-09-22T02:42:58.259Z,99.99
2017-09-22T02:43:43.370Z,99.99
2017-09-22T02:44:43.716Z,99.99
2017-09-22T02:45:43.736Z,99.99
2017-09-22T02:46:43.757Z,99.99
2017-09-22T02:47:43.778Z,99.99
2017-09-22T02:48:43.796Z,99.99
2017-09-22T02:49:43.817Z,99.99
2017-09-22T02:50:43.839Z,99.99
2017-09-22T02:51:43.863Z,99.99
2017-09-22T02:52:43.884Z,99.99
2017-09-22T02:53:43.907Z,99.99
2017-09-22T02:54:43.923Z,99.99
2017-09-22T02:55:43.627Z,99.99
2017-09-22T02:56:43.966Z,99.99
2017-09-22T02:57:43.990Z,99.99
2017-09-22T02:58:58.602Z,99.99
2017-09-22T02:59:44.028Z,99.99
2017-09-22T03:01:43.755Z,99.99
2017-09-22T03:02:43.777Z,99.99
2017-09-22T03:03:43.797Z,99.99
2017-09-22T03:04:44.137Z,99.99
2017-09-22T03:05:43.842Z,99.99
2017-09-22T03:06:44.218Z,99.99
2017-09-22T03:07:44.202Z,99.99
2017-09-22T03:08:44.224Z,99.99
2017-09-22T03:09:43.925Z,99.99
2017-09-22T03:10:44.266Z,99.99
2017-09-22T03:11:44.288Z,99.99
2017-09-22T03:12:43.990Z,99.99
2017-09-22T03:13:44.014Z,99.99
2017-09-22T03:14:58.941Z,99.99
2017-09-22T03:15:44.056Z,99.99
2017-09-22T03:16:44.076Z,99.99
2017-09-22T03:17:44.095Z,99.99
2017-09-22T03:18:44.437Z,99.99
2017-09-22T03:20:44.479Z,99.99
2017-09-22T03:21:44.500Z,99.99
2017-09-22T03:22:44.521Z,99.99
2017-09-22T03:23:44.544Z,99.99
2017-09-22T03:24:44.567Z,99.99
2017-09-22T03:25:44.268Z,99.99
2017-09-22T03:26:44.609Z,99.99
2017-09-22T03:27:44.658Z,99.99
2017-09-22T03:28:44.649Z,99.99
2017-09-22T03:29:44.677Z,99.99
2017-09-22T03:30:59.285Z,99.99
2017-09-22T03:31:44.714Z,99.99
2017-09-22T03:32:44.737Z,99.99
2017-09-22T03:33:44.753Z,99.99
2017-09-22T03:34:44.779Z,99.99
2017-09-22T03:35:44.901Z,99.99
2017-09-22T03:36:44.817Z,99.99
2017-09-22T03:37:44.844Z,99.99
2017-09-22T03:38:44.861Z,99.99
2017-09-22T03:39:44.886Z,99.99
2017-09-22T03:40:44.906Z,99.99
2017-09-22T03:41:44.927Z,99.99
2017-09-22T03:42:44.947Z,99.99
2017-09-22T03:43:44.970Z,99.99
2017-09-22T03:44:45.043Z,99.99
2017-09-22T03:45:59.606Z,99.99
2017-09-22T03:46:45.031Z,99.99
2017-09-22T03:47:45.059Z,99.99
2017-09-22T03:48:45.087Z,99.99
2017-09-22T03:49:45.100Z,99.99
2017-09-22T03:50:45.120Z,99.99
2017-09-22T03:51:45.141Z,99.99
2017-09-22T03:52:45.164Z,99.99
2017-09-22T03:53:45.183Z,99.99
2017-09-22T03:54:45.204Z,99.99
2017-09-22T03:55:44.908Z,99.99
2017-09-22T03:56:45.249Z,99.99
2017-09-22T03:57:45.272Z,99.99
2017-09-22T03:58:45.293Z,99.99
2017-09-22T03:59:45.310Z,99.99
2017-09-22T04:00:45.335Z,99.99
2017-09-22T04:01:45.361Z,99.99
2017-09-22T04:02:45.377Z,99.99
2017-09-22T04:03:45.399Z,99.99
2017-09-22T04:04:45.451Z,99.99
2017-09-22T04:05:45.442Z,99.99
2017-09-22T04:06:45.469Z,99.99
2017-09-22T04:07:45.486Z,99.99
2017-09-22T04:08:45.505Z,99.99
2017-09-22T04:09:45.533Z,99.99
2017-09-22T04:10:45.554Z,99.99
2017-09-22T04:11:45.573Z,99.99
2017-09-22T04:12:45.590Z,99.99
2017-09-22T04:13:45.611Z,99.99
2017-09-22T04:14:45.633Z,99.99
2017-09-22T04:15:45.338Z,99.99
2017-09-22T04:16:45.358Z,99.99
2017-09-22T04:18:00.290Z,99.99
2017-09-22T04:18:45.718Z,99.99
2017-09-22T04:20:45.760Z,99.99
2017-09-22T04:21:45.785Z,99.99
2017-09-22T04:22:45.487Z,99.99
2017-09-22T04:23:45.826Z,99.99
2017-09-22T04:24:45.849Z,99.99
2017-09-22T04:25:45.867Z,99.99
2017-09-22T04:26:45.573Z,99.99
2017-09-22T04:27:45.910Z,99.99
2017-09-22T04:28:45.933Z,99.99
2017-09-22T04:29:45.958Z,99.99
2017-09-22T04:30:45.976Z,99.99
2017-09-22T04:31:45.680Z,99.99
2017-09-22T04:32:46.021Z,99.99
2017-09-22T04:34:00.633Z,99.99
2017-09-22T04:34:46.063Z,99.99
2017-09-22T04:36:46.105Z,99.99
2017-09-22T04:38:45.829Z,99.99
2017-09-22T04:39:46.169Z,99.99
2017-09-22T04:40:46.189Z,99.99
2017-09-22T04:41:46.213Z,99.99
2017-09-22T04:42:46.232Z,99.99
2017-09-22T04:43:46.258Z,99.99
2017-09-22T04:44:46.279Z,99.99
2017-09-22T04:45:46.296Z,99.99
2017-09-22T04:46:46.316Z,99.99
2017-09-22T04:47:46.340Z,99.99
2017-09-22T04:48:46.362Z,99.99
2017-09-22T04:50:00.975Z,99.99
2017-09-22T04:50:46.402Z,99.99
2017-09-22T04:51:46.425Z,99.99
2017-09-22T04:53:46.471Z,99.99
2017-09-22T04:54:46.489Z,99.99
2017-09-22T04:55:46.511Z,99.99
2017-09-22T04:56:46.534Z,99.99
2017-09-22T04:57:46.556Z,99.99
2017-09-22T04:58:46.578Z,99.99
2017-09-22T04:59:46.598Z,99.99
2017-09-22T05:00:46.618Z,99.99
2017-09-22T05:01:46.640Z,99.99
2017-09-22T05:02:46.669Z,99.99
2017-09-22T05:03:46.732Z,99.99
2017-09-22T05:04:46.384Z,99.99
2017-09-22T05:06:01.317Z,99.99
2017-09-22T05:06:46.742Z,99.99
2017-09-22T05:07:46.769Z,99.99
2017-09-22T05:08:46.787Z,99.99
2017-09-22T05:09:46.810Z,99.99
2017-09-22T05:10:46.512Z,99.99
2017-09-22T05:11:46.852Z,99.99
2017-09-22T05:12:46.874Z,99.99
2017-09-22T05:13:46.575Z,99.99
2017-09-22T05:14:46.915Z,99.99
2017-09-22T05:15:46.940Z,99.99
2017-09-22T05:16:46.959Z,99.99
2017-09-22T05:17:46.984Z,99.99
2017-09-22T05:18:47.001Z,99.99
2017-09-22T05:19:47.025Z,99.99
2017-09-22T05:21:01.637Z,99.99
2017-09-22T05:23:47.112Z,99.99
2017-09-22T05:24:47.130Z,99.99
2017-09-22T05:25:47.153Z,99.99
2017-09-22T05:26:47.170Z,99.99
2017-09-22T05:27:47.193Z,99.99
2017-09-22T05:28:47.219Z,99.99
2017-09-22T05:29:47.237Z,99.99
2017-09-22T05:30:46.940Z,99.99
2017-09-22T05:31:47.280Z,99.99
2017-09-22T05:32:47.304Z,99.99
2017-09-22T05:33:47.003Z,99.99
2017-09-22T05:34:47.345Z,99.99
2017-09-22T05:35:47.047Z,99.99
2017-09-22T05:36:47.066Z,99.99
2017-09-22T05:38:47.429Z,99.99
2017-09-22T05:39:47.133Z,99.99
2017-09-22T05:40:47.153Z,99.99
2017-09-22T05:41:47.173Z,99.99
2017-09-22T05:42:47.196Z,99.99
2017-09-22T05:43:47.537Z,99.99
2017-09-22T05:44:47.240Z,99.99
2017-09-22T05:45:47.581Z,99.99
2017-09-22T05:46:47.601Z,99.99
2017-09-22T05:47:47.624Z,99.99
2017-09-22T05:48:47.642Z,99.99
2017-09-22T05:49:47.347Z,99.99
2017-09-22T05:50:47.370Z,99.99
2017-09-22T05:51:47.710Z,99.99
2017-09-22T05:53:02.323Z,99.99
2017-09-22T05:53:47.758Z,99.99
2017-09-22T05:54:47.777Z,99.99
2017-09-22T05:55:47.798Z,99.99
2017-09-22T05:56:47.818Z,99.99
2017-09-22T05:57:47.847Z,99.99
2017-09-22T05:58:47.869Z,99.99
2017-09-22T05:59:47.889Z,99.99
2017-09-22T06:00:47.916Z,99.99
2017-09-22T06:01:47.938Z,99.99
2017-09-22T06:02:47.644Z,99.99
2017-09-22T06:03:47.669Z,99.99
2017-09-22T06:04:48.010Z,99.99
2017-09-22T06:05:48.034Z,99.99
2017-09-22T06:06:47.741Z,99.99
2017-09-22T06:07:47.769Z,99.99
2017-09-22T06:09:02.754Z,99.99
2017-09-22T06:09:48.138Z,99.99
2017-09-22T06:11:47.870Z,99.99
2017-09-22T06:12:48.218Z,99.52
2017-09-22T06:13:48.241Z,99.04
2017-09-22T06:14:47.948Z,98.66
2017-09-22T06:15:47.977Z,98.18
2017-09-22T06:16:48.004Z,97.47
2017-09-22T06:17:48.346Z,96.99
2017-09-22T06:18:48.377Z,96.22
2017-09-22T06:19:48.084Z,96.51
2017-09-22T06:20:48.427Z,96.22
2017-09-22T06:21:48.462Z,95.65
2017-09-22T06:22:48.483Z,94.74
2017-09-22T06:23:48.515Z,94.02
2017-09-22T06:25:03.134Z,93.16
2017-09-22T06:25:48.570Z,92.4
2017-09-22T06:26:48.595Z,91.53
2017-09-22T06:27:48.631Z,91.92
2017-09-22T06:29:48.686Z,90.48
2017-09-22T06:30:48.713Z,90.09
2017-09-22T06:31:48.741Z,89.66
2017-09-22T06:32:48.773Z,89.76
2017-09-22T06:33:48.798Z,89.47
2017-09-22T06:34:48.512Z,88.99
2017-09-22T06:35:48.857Z,88.9
2017-09-22T06:36:48.889Z,89.09
2017-09-22T06:37:48.918Z,89.18
2017-09-22T06:38:48.949Z,88.7
2017-09-22T06:39:48.660Z,87.65
2017-09-22T06:41:03.600Z,87.08
2017-09-22T06:41:49.047Z,86.83
2017-09-22T06:42:49.065Z,86.98
2017-09-22T06:43:49.099Z,87.12
2017-09-22T06:44:49.129Z,86.98
2017-09-22T06:45:49.159Z,87.55
2017-09-22T06:46:49.189Z,87.08
2017-09-22T06:47:49.219Z,86.98
2017-09-22T06:48:49.249Z,86.54
2017-09-22T06:49:49.283Z,84.58
2017-09-22T06:50:49.311Z,83.56
2017-09-22T06:51:49.342Z,83.08
2017-09-22T06:52:49.370Z,82.07
2017-09-22T06:53:49.407Z,80.82
2017-09-22T06:54:49.117Z,80.47
2017-09-22T06:56:04.061Z,79.8
2017-09-22T06:57:49.526Z,78.55
2017-09-22T06:58:49.559Z,78.45
2017-09-22T06:59:49.590Z,78.17
2017-09-22T07:00:49.623Z,77.59
2017-09-22T07:02:49.683Z,77.69
2017-09-22T07:03:49.711Z,78.61
2017-09-22T07:04:49.743Z,80.4
2017-09-22T07:05:49.771Z,81.7
2017-09-22T07:06:49.804Z,82.42
2017-09-22T07:07:49.831Z,82.9
2017-09-22T07:08:49.860Z,83.67
2017-09-22T07:09:49.890Z,83.38
2017-09-22T07:10:49.918Z,83.58
2017-09-22T07:11:49.630Z,83.19
2017-09-22T07:12:49.975Z,83.86
2017-09-22T07:14:50.034Z,84.78
2017-09-22T07:16:50.087Z,83.76
2017-09-22T07:17:50.162Z,83.29
2017-09-22T07:18:50.144Z,82.62
2017-09-22T07:19:49.854Z,82.18
2017-09-22T07:20:50.201Z,81.74
2017-09-22T07:21:50.229Z,81.35
2017-09-22T07:22:50.260Z,80.78
2017-09-22T07:23:50.283Z,80.2
2017-09-22T07:24:49.997Z,80.01
2017-09-22T07:25:50.343Z,79.72
2017-09-22T07:26:50.367Z,79.82
2017-09-22T07:28:04.997Z,80.3
2017-09-22T07:28:50.430Z,79.63
2017-09-22T07:29:50.461Z,79.53
2017-09-22T07:30:50.489Z,77.84
2017-09-22T07:31:50.204Z,76.64
2017-09-22T07:32:50.551Z,74.94
2017-09-22T07:33:50.580Z,74.94
2017-09-22T07:34:50.616Z,74.6
2017-09-22T07:35:50.645Z,73.63
2017-09-22T07:36:50.671Z,72.13
2017-09-22T07:37:50.699Z,71.65
2017-09-22T07:38:50.730Z,72.29
2017-09-22T07:39:50.761Z,70.98
2017-09-22T07:40:50.791Z,71.01
2017-09-22T07:41:50.820Z,71.08
2017-09-22T07:42:50.852Z,71.08
2017-09-22T07:44:05.474Z,71.65
2017-09-22T07:44:50.915Z,70.68
2017-09-22T07:45:50.941Z,69.28
2017-09-22T07:47:50.683Z,67.8
2017-09-22T07:48:51.027Z,68.19
2017-09-22T07:49:51.060Z,68.57
2017-09-22T07:50:51.091Z,68.86
2017-09-22T07:51:51.121Z,69.12
2017-09-22T07:52:51.150Z,69.02
2017-09-22T07:53:51.183Z,69.02
2017-09-22T07:54:51.209Z,68.57
2017-09-22T07:55:51.239Z,68.48
2017-09-22T07:56:51.272Z,67.13
2017-09-22T07:57:51.300Z,66.84
2017-09-22T07:58:51.329Z,65.69
2017-09-22T08:00:05.953Z,66.36
2017-09-22T08:00:51.391Z,66.36
2017-09-22T08:01:51.433Z,66.01
2017-09-22T08:02:51.448Z,65.43
2017-09-22T08:03:51.480Z,65.46
2017-09-22T08:04:51.511Z,64.79
2017-09-22T08:05:51.541Z,64.5
2017-09-22T08:06:51.575Z,64.5
2017-09-22T08:07:51.595Z,64.69
2017-09-22T08:08:51.628Z,64.79
2017-09-22T08:09:51.339Z,64.89
2017-09-22T08:10:51.694Z,64.79
2017-09-22T08:11:51.401Z,65.66
2017-09-22T08:12:51.747Z,64.02
2017-09-22T08:13:51.777Z,63.73
2017-09-22T08:14:51.807Z,64.69
2017-09-22T08:16:06.430Z,64.89
2017-09-22T08:16:51.867Z,63.41
2017-09-22T08:18:51.924Z,63.51
2017-09-22T08:19:51.954Z,62
2017-09-22T08:20:51.987Z,60.77
2017-09-22T08:21:52.018Z,61.25
2017-09-22T08:22:52.049Z,60.13
2017-09-22T08:23:52.076Z,60.1
2017-09-22T08:24:52.106Z,59.62
2017-09-22T08:25:52.135Z,60.3
2017-09-22T08:26:52.168Z,59.59
2017-09-22T08:27:52.229Z,60.46
2017-09-22T08:28:51.907Z,60.94
2017-09-22T08:29:52.256Z,60.17
2017-09-22T08:31:06.877Z,60.27
2017-09-22T08:31:52.323Z,60.55
2017-09-22T08:32:52.023Z,60.84
2017-09-22T08:33:52.371Z,60.87
2017-09-22T08:34:52.414Z,60.58
2017-09-22T08:35:52.433Z,60.3
2017-09-22T08:36:52.461Z,60.39
2017-09-22T08:37:52.490Z,60.87
2017-09-22T08:38:52.519Z,60.1
2017-09-22T08:39:52.547Z,61.39
2017-09-22T08:40:52.587Z,61.77
2017-09-22T08:41:52.605Z,61.87
2017-09-22T08:42:52.636Z,61.9
2017-09-22T08:43:52.665Z,61.04
2017-09-22T08:44:52.694Z,59.97
2017-09-22T08:45:52.726Z,60.84
2017-09-22T08:46:52.752Z,60.36
2017-09-22T08:47:52.780Z,59.62
2017-09-22T08:48:52.808Z,58.59
2017-09-22T08:49:52.519Z,58.59
2017-09-22T08:50:52.866Z,59.17
2017-09-22T08:51:52.892Z,59.55
2017-09-22T08:52:52.924Z,60.1
2017-09-22T08:53:52.954Z,60.07
2017-09-22T08:54:52.983Z,61
2017-09-22T08:55:53.017Z,61.46
2017-09-22T08:56:53.042Z,61.84
2017-09-22T08:57:53.068Z,61.16
2017-09-22T08:58:53.096Z,62.58
2017-09-22T08:59:53.124Z,64.37
2017-09-22T09:00:53.151Z,63.89
2017-09-22T09:01:53.178Z,63.89
2017-09-22T09:03:07.804Z,63.32
2017-09-22T09:03:53.231Z,63.45
2017-09-22T09:04:53.268Z,63.73
2017-09-22T09:05:53.315Z,63.54
2017-09-22T09:06:53.326Z,64.66
2017-09-22T09:07:53.343Z,64.85
2017-09-22T09:08:53.477Z,64.56
2017-09-22T09:10:53.106Z,64.89
2017-09-22T09:11:53.455Z,64.69
2017-09-22T09:12:53.477Z,64.76
2017-09-22T09:13:53.503Z,64.6
2017-09-22T09:14:53.533Z,64.6
2017-09-22T09:15:53.560Z,63.28
2017-09-22T09:16:53.268Z,62.8
2017-09-22T09:17:53.611Z,62.06
2017-09-22T09:19:08.234Z,60.62
2017-09-22T09:19:53.666Z,60.94
2017-09-22T09:20:53.699Z,61.1
2017-09-22T09:21:53.404Z,60.42
2017-09-22T09:22:53.754Z,62.68
2017-09-22T09:23:53.778Z,64.37
2017-09-22T09:24:53.808Z,64.82
2017-09-22T09:26:53.861Z,65.46
2017-09-22T09:27:53.890Z,65.56
2017-09-22T09:28:53.916Z,65.4
2017-09-22T09:29:53.942Z,64.28
2017-09-22T09:30:53.972Z,63.45
2017-09-22T09:31:53.677Z,62.51
2017-09-22T09:32:54.023Z,61.74
2017-09-22T09:33:54.049Z,60.91
2017-09-22T09:35:08.669Z,60.65
2017-09-22T09:35:54.105Z,60.65
2017-09-22T09:36:54.133Z,61.22
2017-09-22T09:37:53.843Z,59.78
2017-09-22T09:38:54.188Z,59.62
2017-09-22T09:39:54.223Z,59.43
2017-09-22T09:40:54.241Z,59.23
2017-09-22T09:41:54.271Z,59.23
2017-09-22T09:42:54.296Z,59.33
2017-09-22T09:43:54.326Z,59.43
2017-09-22T09:44:54.353Z,58.75
2017-09-22T09:45:54.381Z,59.04
2017-09-22T09:46:54.088Z,57.92
2017-09-22T09:47:54.433Z,57.53
2017-09-22T09:48:54.462Z,56.76
2017-09-22T09:49:54.494Z,57.62
2017-09-22T09:51:09.112Z,58.63
2017-09-22T09:52:54.573Z,58.4
2017-09-22T09:53:54.603Z,57.53
2017-09-22T09:54:54.629Z,57.34
2017-09-22T09:55:54.656Z,57.65
2017-09-22T09:56:54.684Z,56.69
2017-09-22T09:57:54.764Z,56.3
2017-09-22T09:58:54.741Z,55.94
2017-09-22T09:59:54.809Z,55.46
2017-09-22T10:00:54.480Z,55.24
2017-09-22T10:01:54.826Z,55.08
2017-09-22T10:02:54.853Z,54.79
2017-09-22T10:03:54.880Z,55.56
2017-09-22T10:04:54.911Z,56.47
2017-09-22T10:06:09.533Z,57.98
2017-09-22T10:06:54.967Z,59.2
2017-09-22T10:07:55.042Z,60.42
2017-09-22T10:09:55.059Z,62.96
2017-09-22T10:10:54.760Z,63.35
2017-09-22T10:11:54.787Z,63.89
2017-09-22T10:12:55.167Z,64.66
2017-09-22T10:13:55.179Z,64.37
2017-09-22T10:14:55.193Z,64.85
2017-09-22T10:15:55.217Z,65.05
2017-09-22T10:16:55.244Z,64.95
2017-09-22T10:17:55.276Z,65.59
2017-09-22T10:18:55.299Z,66.26
2017-09-22T10:19:55.325Z,66.36
2017-09-22T10:20:55.354Z,65.81
2017-09-22T10:21:55.060Z,66.46
2017-09-22T10:22:55.411Z,66.36
2017-09-22T10:23:55.436Z,65.49
2017-09-22T10:24:55.455Z,65.2
2017-09-22T10:25:55.166Z,64.85
2017-09-22T10:27:55.536Z,63.28
2017-09-22T10:28:55.563Z,62.61
2017-09-22T10:29:55.591Z,61.58
2017-09-22T10:30:55.615Z,61.29
2017-09-22T10:31:55.323Z,62.26
2017-09-22T10:32:55.671Z,60.91
2017-09-22T10:33:55.694Z,61.97
2017-09-22T10:34:55.718Z,61.65
2017-09-22T10:35:55.748Z,62.32
2017-09-22T10:36:55.771Z,62.99
2017-09-22T10:38:10.391Z,62.71
2017-09-22T10:38:55.825Z,62.71
2017-09-22T10:39:55.851Z,63.25
2017-09-22T10:40:55.877Z,63.41
2017-09-22T10:41:55.905Z,65.05
2017-09-22T10:42:55.610Z,65.59
2017-09-22T10:43:55.636Z,66.52
2017-09-22T10:44:55.663Z,67
2017-09-22T10:45:55.688Z,67.63
2017-09-22T10:46:56.029Z,67.73
2017-09-22T10:47:55.738Z,67.47
2017-09-22T10:48:55.764Z,67.47
2017-09-22T10:49:55.791Z,67
2017-09-22T10:50:56.143Z,67.29
2017-09-22T10:51:55.839Z,67.86
2017-09-22T10:52:56.187Z,67.9
2017-09-22T10:54:10.803Z,66.68
2017-09-22T10:56:55.970Z,64.4
2017-09-22T10:57:56.311Z,65.17
2017-09-22T10:58:56.337Z,62.51
2017-09-22T10:59:56.043Z,61.65
2017-09-22T11:00:56.390Z,62.23
2017-09-22T11:01:56.412Z,62.45
2017-09-22T11:02:56.438Z,61.29
2017-09-22T11:03:56.464Z,60.84
2017-09-22T11:04:56.492Z,59.97
2017-09-22T11:05:56.516Z,60.07
2017-09-22T11:06:56.551Z,59.75
2017-09-22T11:07:56.566Z,59.85
2017-09-22T11:08:56.271Z,59.85
2017-09-22T11:10:11.208Z,61.19
2017-09-22T11:10:56.645Z,60.24
2017-09-22T11:11:56.664Z,59.66
2017-09-22T11:12:56.693Z,60.04
2017-09-22T11:13:56.715Z,61.36
2017-09-22T11:14:56.742Z,62.68
2017-09-22T11:15:56.768Z,63.41
2017-09-22T11:16:56.796Z,63.45
2017-09-22T11:17:56.821Z,62.87
2017-09-22T11:18:56.526Z,63.45
2017-09-22T11:19:56.871Z,62.58
2017-09-22T11:20:56.895Z,62.68
2017-09-22T11:21:56.918Z,63.35
2017-09-22T11:22:56.946Z,62.68
2017-09-22T11:23:56.972Z,62.68
2017-09-22T11:24:56.994Z,62.48
2017-09-22T11:26:11.614Z,62.13
2017-09-22T11:26:56.730Z,62.58
2017-09-22T11:27:56.751Z,62.1
2017-09-22T11:28:56.778Z,61.91
2017-09-22T11:29:56.803Z,62.68
2017-09-22T11:30:57.149Z,63.79
2017-09-22T11:31:56.855Z,63.89
2017-09-22T11:33:57.225Z,64.72
2017-09-22T11:34:57.249Z,65.2
2017-09-22T11:35:56.954Z,66.16
2017-09-22T11:36:56.981Z,66.26
2017-09-22T11:37:57.003Z,65.3
2017-09-22T11:38:57.348Z,66.23
2017-09-22T11:39:57.372Z,66.8
2017-09-22T11:41:11.991Z,67.32
2017-09-22T11:41:57.424Z,67.76
2017-09-22T11:43:57.473Z,67.67
2017-09-22T11:45:57.522Z,68.44
2017-09-22T11:46:57.550Z,68.05
2017-09-22T11:47:57.572Z,68.18
2017-09-22T11:48:57.598Z,68.44
2017-09-22T11:49:57.302Z,67.38
2017-09-22T11:50:57.650Z,67.13
2017-09-22T11:51:57.672Z,66.55
2017-09-22T11:52:57.697Z,67.13
2017-09-22T11:53:57.722Z,65.88
2017-09-22T11:55:57.773Z,64.72
2017-09-22T11:56:57.797Z,63.6
2017-09-22T11:57:57.501Z,63.12
2017-09-22T11:58:57.847Z,63.6
2017-09-22T11:59:57.552Z,62.64
2017-09-22T12:01:57.602Z,61.33
2017-09-22T12:02:57.943Z,60.75
2017-09-22T12:03:57.970Z,61.61
2017-09-22T12:04:57.675Z,60.85
2017-09-22T12:05:58.019Z,60.66
2017-09-22T12:06:57.726Z,59.92
2017-09-22T12:07:58.067Z,60.75
2017-09-22T12:08:58.091Z,61.33
2017-09-22T12:09:58.117Z,61.81
2017-09-22T12:10:58.143Z,61.91
2017-09-22T12:11:57.851Z,61.04
2017-09-22T12:13:12.784Z,61.49
2017-09-22T12:13:58.220Z,61.11
2017-09-22T12:15:58.266Z,61.49
2017-09-22T12:16:57.975Z,61.2
2017-09-22T12:17:58.316Z,60.27
2017-09-22T12:18:58.344Z,60.08
2017-09-22T12:19:58.366Z,59.53
2017-09-22T12:20:58.393Z,59.15
2017-09-22T12:21:58.415Z,59.24
2017-09-22T12:22:58.442Z,58.76
2017-09-22T12:23:58.146Z,59.53
2017-09-22T12:24:58.488Z,59.72
2017-09-22T12:25:58.514Z,60.01
2017-09-22T12:26:58.539Z,59.72
2017-09-22T12:27:58.567Z,59.24
2017-09-22T12:29:13.182Z,60.01
2017-09-22T12:29:58.616Z,60.01
2017-09-22T12:30:58.321Z,60.94
2017-09-22T12:31:58.665Z,60.85
2017-09-22T12:32:58.689Z,60.75
2017-09-22T12:33:58.715Z,61.61
2017-09-22T12:34:58.741Z,59.69
2017-09-22T12:35:58.765Z,60.21
2017-09-22T12:36:58.793Z,59.92
2017-09-22T12:37:58.812Z,60.11
2017-09-22T12:38:58.839Z,59.75
2017-09-22T12:39:58.862Z,58.89
2017-09-22T12:40:58.889Z,57.28
2017-09-22T12:41:58.593Z,56.12
2017-09-22T12:42:58.942Z,55.87
2017-09-22T12:45:13.582Z,55.55
2017-09-22T12:45:59.013Z,56.29
2017-09-22T12:46:59.046Z,56.38
2017-09-22T12:47:59.065Z,56.58
2017-09-22T12:48:59.091Z,56.48
2017-09-22T12:49:59.114Z,56.6
2017-09-22T12:50:59.138Z,55.35
2017-09-22T12:51:59.170Z,55.26
2017-09-22T12:52:58.871Z,55.16
2017-09-22T12:53:59.218Z,56.12
2017-09-22T12:54:59.238Z,56.03
2017-09-22T12:55:59.261Z,57.45
2017-09-22T12:56:59.291Z,57.57
2017-09-22T12:57:59.315Z,57.37
2017-09-22T12:58:59.342Z,57.57
2017-09-22T12:59:59.368Z,57.57
2017-09-22T13:01:13.982Z,58.44
2017-09-22T13:01:59.419Z,58.12
2017-09-22T13:05:59.199Z,59.66
2017-09-22T13:06:59.541Z,60.04
2017-09-22T13:07:59.568Z,59.27
2017-09-22T13:08:59.270Z,58.79
2017-09-22T13:09:59.298Z,58.31
2017-09-22T13:10:59.323Z,58.4
2017-09-22T13:11:59.665Z,59.08
2017-09-22T13:12:59.694Z,59.56
2017-09-22T13:13:59.717Z,60.04
2017-09-22T13:14:59.746Z,59.94
2017-09-22T13:16:14.359Z,58.6
2017-09-22T13:16:59.812Z,57.92
2017-09-22T13:17:59.815Z,57.47
2017-09-22T13:19:59.866Z,56.7
2017-09-22T13:20:59.894Z,56.54
2017-09-22T13:21:59.598Z,56.6
2017-09-22T13:22:59.944Z,56.41
2017-09-22T13:23:59.647Z,55.93
2017-09-22T13:24:59.990Z,54.87
2017-09-22T13:26:00.020Z,55.93
2017-09-22T13:27:00.041Z,55.65
2017-09-22T13:28:00.069Z,56.65
2017-09-22T13:29:00.092Z,57.13
2017-09-22T13:30:00.136Z,58.37
2017-09-22T13:31:00.145Z,59.31
2017-09-22T13:31:59.849Z,59.99
2017-09-22T13:32:59.874Z,59.89
2017-09-22T13:34:00.226Z,60.56
2017-09-22T13:35:00.241Z,60.08
2017-09-22T13:36:00.270Z,60.01
2017-09-22T13:37:00.294Z,59.89
2017-09-22T13:38:00.318Z,60.27
2017-09-22T13:39:00.341Z,60.85